Flight Track Log - Related Links

Times and Time Zones

All times are in EDT time to prevent confusion due to time zone crossing. See the CES2498 flight status page for this flight to view local times or setup timezone preferences in your user account.

Time Position Orientation Groundspeed Altitude Reporting Facility
EDT Latitude Longitude Course Direction KTS MPH feet Rate Location/Type
Tue 07:10:00 AM 23.3162 101.6755 32° Northeast  Level Estimated
Tue 07:11:00 AM 23.4055 101.7372 32° Northeast  Level Estimated
Tue 07:12:00 AM 23.4947 101.7990 32° Northeast  Level Estimated
Tue 07:13:00 AM 23.5840 101.8608 32° Northeast  Level Estimated
Tue 07:14:00 AM 23.6732 101.9228 32° Northeast  Level Estimated
Tue 07:15:00 AM 23.7624 101.9848 32° Northeast  Level Estimated
Tue 07:16:00 AM 23.8516 102.0469 33° Northeast  Level Estimated
Tue 07:17:00 AM 23.9407 102.1092 33° Northeast  Level Estimated
Tue 07:18:00 AM 24.0299 102.1714 33° Northeast  Level Estimated
Tue 07:19:00 AM 24.1190 102.2338 33° Northeast  Level Estimated
Tue 07:20:00 AM 24.2080 102.2963 33° Northeast  Level Estimated
Tue 07:21:00 AM 24.2971 102.3589 33° Northeast  Level Estimated
Tue 07:22:00 AM 24.3861 102.4215 33° Northeast  Level Estimated
Tue 07:23:00 AM 24.4751 102.4842 33° Northeast  Level Estimated
Tue 07:24:00 AM 24.5641 102.5471 33° Northeast  Level Estimated
Tue 07:25:00 AM 24.6530 102.6100 33° Northeast  Level Estimated
Tue 07:26:00 AM 24.7419 102.6730 33° Northeast  Level Estimated
Tue 07:27:00 AM 24.8308 102.7361 33° Northeast  Level Estimated
Tue 07:28:00 AM 24.9312 102.8074 33° Northeast  Level Estimated
Tue 07:29:00 AM 25.0314 102.8789 33° Northeast  Level Estimated
Tue 07:30:00 AM 25.1019 102.9292 33° Northeast  Level Estimated
Tue 07:31:00 AM 25.1019 102.9292 326° Northwest  Level Estimated
Tue 07:32:00 AM 25.1019 102.9292 326° Northwest  Level Estimated
Tue 07:33:00 AM 25.1019 102.9292 326° Northwest  Level Estimated
Tue 07:34:00 AM 25.1019 102.9292 326° Northwest  Level Estimated
Tue 07:35:00 AM 25.1019 102.9292 326° Northwest  Level Estimated
Tue 07:36:00 AM 25.1019 102.9292 326° Northwest  Level Estimated
Tue 07:37:00 AM 25.1019 102.9292 326° Northwest  Level Estimated
Tue 07:38:00 AM 25.1019 102.9292 326° Northwest  Level Estimated
Tue 07:39:00 AM 25.1019 102.9292 326° Northwest  Level Estimated
Tue 07:40:00 AM 25.1019 102.9292 326° Northwest  Level Estimated
Tue 07:41:00 AM 25.1019 102.9292 326° Northwest  Level Estimated
Tue 07:42:00 AM 25.1019 102.9292 326° Northwest  Level Estimated

Login

Don't have an account? Register now (free) for customized features, flight alerts, and more!